Time;durP1;ratioP1;P1;durP2;ratioP2;P2;SDS_P1;SDS_P2;PMS_P1;PMS_P2;Temp;Humidity;BMP_temperature;BMP_pressure;BME280_temperature;BME280_humidity;BME280_pressure;Samples;Min_cycle;Max_cycle;Signal;HPM_P1;HPM_P2
2023/06/29 00:01:24;;;;;;;;;55.00;44.33;;;;;-143.57;100.00;65101.44;5121152;27;46253;-43
2023/06/29 00:03:50;;;;;;;;;55.33;44.33;;;;;-143.57;100.00;65101.44;5121202;27;45367;-42
2023/06/29 00:06:15;;;;;;;;;65.33;47.67;;;;;-143.57;100.00;65101.44;5121490;27;45292;-43
2023/06/29 00:08:40;;;;;;;;;58.00;43.67;;;;;-143.57;100.00;65101.44;5121394;27;45347;-42
2023/06/29 00:11:07;;;;;;;;;60.00;45.67;;;;;-143.57;100.00;65101.44;5121182;27;46107;-43
2023/06/29 00:13:33;;;;;;;;;61.33;46.67;;;;;-143.57;100.00;65101.44;5121376;27;45256;-44
2023/06/29 00:15:59;;;;;;;;;49.67;38.33;;;;;-143.57;100.00;65101.44;5121265;27;45525;-43
2023/06/29 00:18:27;;;;;;;;;60.00;46.33;;;;;-143.57;100.00;65101.44;5121513;27;45437;-43
2023/06/29 00:20:54;;;;;;;;;56.33;45.00;;;;;-143.57;100.00;65101.44;5120851;27;46222;-43
2023/06/29 00:23:19;;;;;;;;;57.67;46.33;;;;;-143.57;100.00;65101.44;5120863;27;45315;-43
2023/06/29 00:25:47;;;;;;;;;61.67;47.33;;;;;-143.57;100.00;65101.44;5119300;27;45228;-42
2023/06/29 00:28:12;;;;;;;;;62.00;47.00;;;;;-143.57;100.00;65101.44;5120987;27;45480;-42
2023/06/29 00:30:38;;;;;;;;;60.00;46.00;;;;;-143.57;100.00;65101.44;5120789;27;46214;-45
2023/06/29 00:33:03;;;;;;;;;64.00;48.00;;;;;-143.57;100.00;65101.44;5120577;27;49141;-45
2023/06/29 00:35:28;;;;;;;;;57.67;43.67;;;;;-143.57;100.00;65101.44;5120784;27;45370;-44
2023/06/29 00:37:55;;;;;;;;;57.67;43.67;;;;;-143.57;100.00;65101.44;5120897;27;45454;-42
2023/06/29 00:40:21;;;;;;;;;59.00;44.33;;;;;-143.57;100.00;65101.44;5120539;27;45313;-43
2023/06/29 00:42:46;;;;;;;;;62.00;47.00;;;;;-143.57;100.00;65101.44;5120369;27;45351;-43
2023/06/29 00:45:11;;;;;;;;;64.00;47.67;;;;;-143.57;100.00;65101.44;5120948;27;45378;-42
2023/06/29 00:47:37;;;;;;;;;74.67;56.33;;;;;-143.57;100.00;65101.44;5120566;27;45541;-44
2023/06/29 00:50:04;;;;;;;;;66.33;51.33;;;;;-143.57;100.00;65101.44;5120591;27;46060;-45
2023/06/29 00:52:30;;;;;;;;;71.67;54.67;;;;;-143.57;100.00;65101.44;5120458;27;45233;-44
2023/06/29 00:54:56;;;;;;;;;69.33;51.33;;;;;-143.57;100.00;65101.44;5120499;27;45436;-44
2023/06/29 00:57:22;;;;;;;;;70.00;54.00;;;;;-143.57;100.00;65101.44;5119874;27;45227;-45
2023/06/29 00:59:47;;;;;;;;;67.67;53.00;;;;;-143.57;100.00;65101.44;5119298;27;45406;-45
2023/06/29 01:02:15;;;;;;;;;72.00;52.33;;;;;-143.57;100.00;65101.44;5120246;27;45298;-41
2023/06/29 01:04:41;;;;;;;;;72.67;56.33;;;;;-143.57;100.00;65101.44;5119211;27;45603;-43
2023/06/29 01:07:13;;;;;;;;;71.33;57.33;;;;;-143.57;100.00;65101.44;5119620;27;45265;-45
2023/06/29 01:09:40;;;;;;;;;77.00;60.67;;;;;-143.57;100.00;65101.44;5119960;27;46975;-43
2023/06/29 01:12:06;;;;;;;;;75.67;59.67;;;;;-143.57;100.00;65101.44;5120015;27;45391;-42
2023/06/29 01:14:33;;;;;;;;;64.33;47.33;;;;;-143.57;100.00;65101.44;5120219;27;45556;-44
2023/06/29 01:16:59;;;;;;;;;64.33;50.67;;;;;-143.57;100.00;65101.44;5120212;27;45355;-43
2023/06/29 01:19:29;;;;;;;;;66.33;53.00;;;;;-143.57;100.00;65101.44;5120010;27;46109;-42
2023/06/29 01:22:02;;;;;;;;;65.00;49.33;;;;;-143.57;100.00;65101.44;5119876;27;45337;-42
2023/06/29 01:24:55;;;;;;;;;62.67;47.67;;;;;-143.57;100.00;65101.44;5120262;27;45374;-44
2023/06/29 01:27:24;;;;;;;;;58.00;45.00;;;;;-143.57;100.00;65101.44;5115258;27;45360;-44
2023/06/29 01:29:53;;;;;;;;;56.67;44.33;;;;;-143.57;100.00;65101.44;5119979;27;46300;-43
2023/06/29 01:32:18;;;;;;;;;57.33;45.00;;;;;-143.57;100.00;65101.44;5101126;27;45446;-44
2023/06/29 01:34:44;;;;;;;;;57.00;44.00;;;;;-143.57;100.00;65101.44;5119956;27;45506;-44
2023/06/29 01:37:13;;;;;;;;;58.33;44.00;;;;;-143.57;100.00;65101.44;5120139;27;45409;-42
2023/06/29 01:39:55;;;;;;;;;55.00;40.00;;;;;-143.57;100.00;65101.44;5119852;27;47193;-45
2023/06/29 01:42:21;;;;;;;;;55.67;42.00;;;;;-143.57;100.00;65101.44;5119449;27;45274;-42
2023/06/29 01:44:48;;;;;;;;;53.67;41.33;;;;;-143.57;100.00;65101.44;5119736;27;45450;-43
2023/06/29 01:47:15;;;;;;;;;55.33;41.00;;;;;-143.57;100.00;65101.44;5119676;27;45378;-45
2023/06/29 01:49:41;;;;;;;;;51.33;39.00;;;;;-143.57;100.00;65101.44;5119427;27;46193;-45
2023/06/29 01:52:07;;;;;;;;;50.33;36.33;;;;;-143.57;100.00;65101.44;5101073;27;45351;-42
2023/06/29 01:54:33;;;;;;;;;49.67;38.00;;;;;-143.57;100.00;65101.44;5119612;27;45216;-42
2023/06/29 01:56:59;;;;;;;;;52.00;39.00;;;;;-143.57;100.00;65101.44;5120020;27;45367;-45
2023/06/29 01:59:24;;;;;;;;;50.33;40.33;;;;;-143.57;100.00;65101.44;5119609;27;46141;-43
2023/06/29 02:01:50;;;;;;;;;50.33;38.33;;;;;-143.57;100.00;65101.44;5119217;27;45332;-44
2023/06/29 02:04:15;;;;;;;;;49.67;37.67;;;;;-143.57;100.00;65101.44;5119408;27;45219;-46
2023/06/29 02:06:40;;;;;;;;;49.00;37.33;;;;;-143.57;100.00;65101.44;5119744;27;45368;-43
2023/06/29 02:09:06;;;;;;;;;45.33;35.33;;;;;-143.57;100.00;65101.44;5119295;27;45589;-43
2023/06/29 02:11:31;;;;;;;;;45.33;38.00;;;;;-143.57;100.00;65101.44;5118174;27;45372;-43
2023/06/29 02:13:56;;;;;;;;;50.00;38.00;;;;;-143.57;100.00;65101.44;5119298;27;45318;-44
2023/06/29 02:16:22;;;;;;;;;68.33;51.00;;;;;-143.57;100.00;65101.44;5119493;27;45327;-45
2023/06/29 02:18:47;;;;;;;;;57.67;40.67;;;;;-143.57;100.00;65101.44;5119121;27;45398;-43
2023/06/29 02:21:13;;;;;;;;;52.00;41.67;;;;;-143.57;100.00;65101.44;5119254;27;45371;-43
2023/06/29 02:23:39;;;;;;;;;92.75;84.00;;;;;-143.57;100.00;65101.44;5118963;27;45536;-45
2023/06/29 02:26:04;;;;;;;;;56.00;44.67;;;;;-143.57;100.00;65101.44;5119225;27;45401;-45
2023/06/29 02:28:30;;;;;;;;;56.33;42.00;;;;;-143.57;100.00;65101.44;5118500;27;46112;-44
2023/06/29 02:30:55;;;;;;;;;48.33;39.00;;;;;-143.57;100.00;65101.44;5118931;27;45453;-43
2023/06/29 02:33:20;;;;;;;;;50.67;40.67;;;;;-143.57;100.00;65101.44;5118751;27;45464;-46
2023/06/29 02:35:46;;;;;;;;;47.50;36.00;;;;;-143.57;100.00;65101.44;5118828;27;45505;-45
2023/06/29 02:38:11;;;;;;;;;50.67;40.00;;;;;-143.57;100.00;65101.44;5118856;27;45279;-43
2023/06/29 02:40:36;;;;;;;;;45.67;35.67;;;;;-143.57;100.00;65101.44;5118561;27;45438;-42
2023/06/29 02:43:02;;;;;;;;;72.00;55.00;;;;;-143.57;100.00;65101.44;5118946;27;45338;-45
2023/06/29 02:45:27;;;;;;;;;58.00;44.00;;;;;-143.57;100.00;65101.44;5118817;27;45452;-44
2023/06/29 02:47:52;;;;;;;;;49.00;39.00;;;;;-143.57;100.00;65101.44;5117982;27;52873;-45
2023/06/29 02:50:18;;;;;;;;;47.00;38.00;;;;;-143.57;100.00;65101.44;5118241;27;45416;-43
2023/06/29 02:52:43;;;;;;;;;47.67;35.67;;;;;-143.57;100.00;65101.44;5118527;27;45279;-43
2023/06/29 02:55:09;;;;;;;;;49.00;40.00;;;;;-143.57;100.00;65101.44;5100380;27;45310;-44
2023/06/29 02:57:34;;;;;;;;;56.00;40.33;;;;;-143.57;100.00;65101.44;5118427;27;45370;-45
2023/06/29 02:59:59;;;;;;;;;52.33;42.00;;;;;-143.57;100.00;65101.44;5118317;27;45415;-44
2023/06/29 03:02:25;;;;;;;;;53.33;42.67;;;;;-143.57;100.00;65101.44;5117955;27;50016;-43
2023/06/29 03:04:50;;;;;;;;;50.67;40.67;;;;;-143.57;100.00;65101.44;5118507;27;45402;-43
2023/06/29 03:07:15;;;;;;;;;52.67;40.33;;;;;-143.57;100.00;65101.44;5118244;27;47003;-45
2023/06/29 03:09:41;;;;;;;;;53.33;39.00;;;;;-143.57;100.00;65101.44;5117782;27;45303;-44
2023/06/29 03:12:08;;;;;;;;;55.00;41.00;;;;;-143.57;100.00;65101.44;5118381;27;45359;-42
2023/06/29 03:14:33;;;;;;;;;51.33;41.00;;;;;-143.57;100.00;65101.44;5118734;27;45267;-43
2023/06/29 03:16:59;;;;;;;;;56.00;42.00;;;;;-143.57;100.00;65101.44;5118158;27;46329;-44
2023/06/29 03:19:24;;;;;;;;;54.67;42.67;;;;;-143.57;100.00;65101.44;5118072;27;45350;-44
2023/06/29 03:21:49;;;;;;;;;57.00;43.00;;;;;-143.57;100.00;65101.44;5118298;27;45339;-43
2023/06/29 03:24:15;;;;;;;;;52.33;41.33;;;;;-143.57;100.00;65101.44;5118023;27;45347;-46
2023/06/29 03:26:40;;;;;;;;;60.67;43.33;;;;;-143.57;100.00;65101.44;5099772;27;46113;-45
2023/06/29 03:29:06;;;;;;;;;58.67;45.67;;;;;-143.57;100.00;65101.44;5117813;27;46853;-43
2023/06/29 03:31:31;;;;;;;;;63.33;47.67;;;;;-143.57;100.00;65101.44;5118271;27;45331;-42
2023/06/29 03:33:58;;;;;;;;;60.67;46.00;;;;;-143.57;100.00;65101.44;5118204;27;45422;-41
2023/06/29 03:36:24;;;;;;;;;65.67;49.67;;;;;-143.57;100.00;65101.44;5118020;27;45488;-44
2023/06/29 03:38:49;;;;;;;;;67.67;51.00;;;;;-143.57;100.00;65101.44;5117913;27;45457;-44
2023/06/29 03:41:14;;;;;;;;;64.00;48.67;;;;;-143.57;100.00;65101.44;5117933;27;45252;-43
2023/06/29 03:43:40;;;;;;;;;66.00;47.00;;;;;-143.57;100.00;65101.44;5118322;27;45270;-42
2023/06/29 03:46:05;;;;;;;;;64.00;47.67;;;;;-143.57;100.00;65101.44;5117802;27;46579;-43
2023/06/29 03:48:30;;;;;;;;;60.67;46.33;;;;;-143.57;100.00;65101.44;5117681;27;45308;-43
2023/06/29 03:50:57;;;;;;;;;62.00;45.00;;;;;-143.57;100.00;65101.44;5117923;27;45256;-42
2023/06/29 03:53:22;;;;;;;;;57.00;43.33;;;;;-143.57;100.00;65101.44;5118037;27;45244;-42
2023/06/29 03:55:48;;;;;;;;;58.00;45.00;;;;;-143.57;100.00;65101.44;5117749;27;45341;-43
2023/06/29 03:58:14;;;;;;;;;58.33;46.00;;;;;-143.57;100.00;65101.44;5117841;27;45288;-43
2023/06/29 04:00:39;;;;;;;;;56.67;42.67;;;;;-143.57;100.00;65101.44;5117679;27;45516;-42
2023/06/29 04:03:05;;;;;;;;;60.33;46.67;;;;;-143.57;100.00;65101.44;5117740;27;45315;-42
2023/06/29 04:05:30;;;;;;;;;61.00;46.33;;;;;-143.57;100.00;65101.44;5117367;27;45457;-43
2023/06/29 04:07:56;;;;;;;;;55.67;43.33;;;;;-143.57;100.00;65101.44;5117465;27;45324;-43
2023/06/29 04:10:21;;;;;;;;;60.33;45.67;;;;;-143.57;100.00;65101.44;5117484;27;45452;-44
2023/06/29 04:12:46;;;;;;;;;61.00;45.00;;;;;-143.57;100.00;65101.44;5117244;27;45373;-45
2023/06/29 04:15:12;;;;;;;;;61.00;45.67;;;;;-143.57;100.00;65101.44;5098607;27;56231;-43
2023/06/29 04:17:37;;;;;;;;;58.00;44.67;;;;;-143.57;100.00;65101.44;5117581;27;45306;-44
2023/06/29 04:20:03;;;;;;;;;64.33;47.67;;;;;-143.57;100.00;65101.44;5099410;27;45323;-44
2023/06/29 04:22:28;;;;;;;;;64.33;49.33;;;;;-143.57;100.00;65101.44;5119165;27;45435;-43
2023/06/29 04:24:54;;;;;;;;;67.33;48.00;;;;;-143.57;100.00;65101.44;5119327;27;46120;-43
2023/06/29 04:27:19;;;;;;;;;60.67;47.33;;;;;-143.57;100.00;65101.44;5119318;27;45431;-45
2023/06/29 04:29:44;;;;;;;;;62.00;46.67;;;;;-143.57;100.00;65101.44;5120088;27;45232;-43
2023/06/29 04:32:10;;;;;;;;;61.67;47.33;;;;;-143.57;100.00;65101.44;5119087;27;45370;-45
2023/06/29 04:34:35;;;;;;;;;57.00;45.00;;;;;-143.57;100.00;65101.44;5117109;27;45402;-47
2023/06/29 04:37:02;;;;;;;;;62.00;47.33;;;;;-143.57;100.00;65101.44;5120839;27;45348;-44
2023/06/29 04:39:28;;;;;;;;;62.00;49.00;;;;;-143.57;100.00;65101.44;5121120;27;45394;-44
2023/06/29 04:42:00;;;;;;;;;63.67;49.00;;;;;-143.57;100.00;65101.44;5120951;27;45366;-44
2023/06/29 04:44:31;;;;;;;;;66.67;51.00;;;;;-143.57;100.00;65101.44;5120586;27;47209;-45
2023/06/29 04:46:59;;;;;;;;;74.00;53.00;;;;;-143.57;100.00;65101.44;5120269;27;45426;-43
2023/06/29 04:49:27;;;;;;;;;69.00;53.33;;;;;-143.57;100.00;65101.44;5120399;27;45190;-45
2023/06/29 04:51:55;;;;;;;;;73.67;55.33;;;;;-143.57;100.00;65101.44;5120802;27;45460;-43
2023/06/29 04:54:21;;;;;;;;;70.67;51.00;;;;;-143.57;100.00;65101.44;5119980;27;45413;-44
2023/06/29 04:56:47;;;;;;;;;68.00;47.00;;;;;-143.57;100.00;65101.44;5120170;27;45203;-44
2023/06/29 04:59:12;;;;;;;;;72.33;52.00;;;;;-143.57;100.00;65101.44;5120444;27;45381;-43
2023/06/29 05:01:37;;;;;;;;;70.67;52.33;;;;;-143.57;100.00;65101.44;5120523;27;45291;-42
2023/06/29 05:04:02;;;;;;;;;69.67;50.33;;;;;-143.57;100.00;65101.44;5120033;27;46351;-45
2023/06/29 05:06:28;;;;;;;;;59.67;44.67;;;;;-143.57;100.00;65101.44;5119348;27;45362;-43
2023/06/29 05:08:53;;;;;;;;;67.67;53.00;;;;;-143.57;100.00;65101.44;5120262;27;45371;-45
2023/06/29 05:11:19;;;;;;;;;68.33;50.33;;;;;-143.57;100.00;65101.44;5119611;27;45520;-45
2023/06/29 05:13:44;;;;;;;;;63.00;50.33;;;;;-143.57;100.00;65101.44;5120042;27;46290;-44
2023/06/29 05:16:09;;;;;;;;;66.67;50.67;;;;;-143.57;100.00;65101.44;5120522;27;45303;-44
2023/06/29 05:18:36;;;;;;;;;68.67;50.67;;;;;-143.57;100.00;65101.44;5120188;27;45612;-45
2023/06/29 05:21:03;;;;;;;;;70.00;52.00;;;;;-143.57;100.00;65101.44;5120169;27;45205;-44
2023/06/29 05:23:29;;;;;;;;;69.00;49.00;;;;;-143.57;100.00;65101.44;5119744;27;46983;-44
2023/06/29 05:25:54;;;;;;;;;66.67;48.67;;;;;-143.57;100.00;65101.44;5119943;27;45460;-42
2023/06/29 05:28:19;;;;;;;;;63.00;49.67;;;;;-143.57;100.00;65101.44;5119838;27;45375;-43
2023/06/29 05:30:45;;;;;;;;;67.33;50.00;;;;;-143.57;100.00;65101.44;5120106;27;45327;-45
2023/06/29 05:33:10;;;;;;;;;64.00;49.67;;;;;-143.57;100.00;65101.44;5119800;27;46926;-44
2023/06/29 05:35:35;;;;;;;;;58.00;46.33;;;;;-143.57;100.00;65101.44;5119786;27;45348;-44
2023/06/29 05:38:01;;;;;;;;;64.33;49.00;;;;;-143.57;100.00;65101.44;5120016;27;45382;-44
2023/06/29 05:40:27;;;;;;;;;47.33;34.67;;;;;-143.57;100.00;65101.44;5120018;27;45325;-43
2023/06/29 05:42:53;;;;;;;;;61.67;45.67;;;;;-143.57;100.00;65101.44;5119363;27;47023;-44
2023/06/29 05:45:18;;;;;;;;;55.33;43.00;;;;;-143.57;100.00;65101.44;5119468;27;45347;-44
2023/06/29 05:47:43;;;;;;;;;58.33;46.67;;;;;-143.57;100.00;65101.44;5119625;27;45549;-42
2023/06/29 05:50:09;;;;;;;;;58.33;43.67;;;;;-143.57;100.00;65101.44;5119647;27;45327;-44
2023/06/29 05:52:35;;;;;;;;;54.67;42.67;;;;;-143.57;100.00;65101.44;5118723;27;46309;-44
2023/06/29 05:55:01;;;;;;;;;56.33;40.00;;;;;-143.57;100.00;65101.44;5119537;27;45221;-42
2023/06/29 05:57:27;;;;;;;;;53.67;41.33;;;;;-143.57;100.00;65101.44;5119406;27;45326;-45
2023/06/29 05:59:52;;;;;;;;;51.67;40.67;;;;;-143.57;100.00;65101.44;5119844;27;45290;-43
2023/06/29 06:02:17;;;;;;;;;50.67;38.67;;;;;-143.57;100.00;65101.44;5118965;27;45284;-45
2023/06/29 06:04:43;;;;;;;;;46.33;36.00;;;;;-143.57;100.00;65101.44;5119132;27;45383;-43
2023/06/29 06:07:09;;;;;;;;;49.67;38.33;;;;;-143.57;100.00;65101.44;5119690;27;45208;-44
2023/06/29 06:09:35;;;;;;;;;49.33;38.33;;;;;-143.57;100.00;65101.44;5118436;27;45442;-44
2023/06/29 06:12:00;;;;;;;;;48.67;38.33;;;;;-143.57;100.00;65101.44;5119367;27;45351;-44
2023/06/29 06:14:25;;;;;;;;;52.00;36.33;;;;;-143.57;100.00;65101.44;5119056;27;45409;-44
2023/06/29 06:16:51;;;;;;;;;47.00;36.67;;;;;-143.57;100.00;65101.44;5119513;27;45249;-43
2023/06/29 06:19:16;;;;;;;;;47.00;36.00;;;;;-143.57;100.00;65101.44;5119357;27;45402;-43
2023/06/29 06:21:41;;;;;;;;;44.33;35.67;;;;;-143.57;100.00;65101.44;5118937;27;46711;-46
2023/06/29 06:24:07;;;;;;;;;48.67;37.00;;;;;-143.57;100.00;65101.44;5119185;27;45283;-44
2023/06/29 06:26:32;;;;;;;;;53.67;38.33;;;;;-143.57;100.00;65101.44;5119047;27;45588;-44
2023/06/29 06:28:57;;;;;;;;;47.00;34.67;;;;;-143.57;100.00;65101.44;5119346;27;45439;-42
2023/06/29 06:31:24;;;;;;;;;48.00;37.00;;;;;-143.57;100.00;65101.44;5118917;27;46362;-48
2023/06/29 06:33:56;;;;;;;;;46.67;36.00;;;;;-143.57;100.00;65101.44;5118972;27;45392;-44
2023/06/29 06:36:23;;;;;;;;;45.67;34.67;;;;;-143.57;100.00;65101.44;5118885;27;45336;-44
2023/06/29 06:38:48;;;;;;;;;42.00;34.33;;;;;-143.57;100.00;65101.44;5119142;27;45374;-45
2023/06/29 06:41:14;;;;;;;;;44.00;34.67;;;;;-143.57;100.00;65101.44;5118676;27;47323;-45
2023/06/29 06:43:40;;;;;;;;;44.67;34.33;;;;;-143.57;100.00;65101.44;5118740;27;45369;-43
2023/06/29 06:46:05;;;;;;;;;44.33;34.33;;;;;-143.57;100.00;65101.44;5118995;27;45315;-43
2023/06/29 06:48:30;;;;;;;;;47.67;35.00;;;;;-143.57;100.00;65101.44;5119157;27;45433;-44
2023/06/29 06:50:56;;;;;;;;;41.75;32.75;;;;;-143.57;100.00;65101.44;5118624;27;45395;-44
2023/06/29 06:53:21;;;;;;;;;39.67;32.67;;;;;-143.57;100.00;65101.44;5118726;27;45384;-46
2023/06/29 06:55:46;;;;;;;;;46.00;35.33;;;;;-143.57;100.00;65101.44;5118601;27;45185;-43
2023/06/29 06:58:12;;;;;;;;;45.67;33.33;;;;;-143.57;100.00;65101.44;5118118;27;45357;-45
2023/06/29 07:00:38;;;;;;;;;43.00;34.00;;;;;-143.57;100.00;65101.44;5118374;27;45291;-43
2023/06/29 07:03:03;;;;;;;;;40.50;32.00;;;;;-143.57;100.00;65101.44;5118482;27;45365;-42
2023/06/29 07:05:29;;;;;;;;;40.25;31.00;;;;;-143.57;100.00;65101.44;5118567;27;45404;-44
2023/06/29 07:07:55;;;;;;;;;38.00;32.00;;;;;-143.57;100.00;65101.44;5118749;27;45327;-45
2023/06/29 07:10:20;;;;;;;;;45.25;34.00;;;;;-143.57;100.00;65101.44;5118169;27;45987;-45
2023/06/29 07:12:46;;;;;;;;;42.00;32.75;;;;;-143.57;100.00;65101.44;5118394;27;45375;-45
2023/06/29 07:15:11;;;;;;;;;42.00;33.75;;;;;-143.57;100.00;65101.44;5118599;27;45404;-43
2023/06/29 07:17:37;;;;;;;;;41.50;32.50;;;;;-143.57;100.00;65101.44;5118695;27;45330;-45
2023/06/29 07:20:04;;;;;;;;;44.75;33.00;;;;;-143.57;100.00;65101.44;5117969;27;46012;-46
2023/06/29 07:22:29;;;;;;;;;40.50;31.00;;;;;-143.57;100.00;65101.44;5116761;27;45530;-44
2023/06/29 07:24:57;;;;;;;;;45.00;34.00;;;;;-143.57;100.00;65101.44;5119848;27;45363;-44
2023/06/29 07:27:22;;;;;;;;;42.00;34.25;;;;;-143.57;100.00;65101.44;5119810;27;45515;-43
2023/06/29 07:29:47;;;;;;;;;39.25;33.00;;;;;-143.57;100.00;65101.44;5120564;27;46150;-43
2023/06/29 07:32:13;;;;;;;;;40.25;33.75;;;;;-143.57;100.00;65101.44;5120401;27;45284;-45
2023/06/29 07:34:38;;;;;;;;;37.00;31.25;;;;;-143.57;100.00;65101.44;5118521;27;45371;-45
2023/06/29 07:37:05;;;;;;;;;45.50;35.25;;;;;-143.57;100.00;65101.44;5118388;27;45320;-46
2023/06/29 07:39:30;;;;;;;;;41.00;32.00;;;;;-143.57;100.00;65101.44;5117173;27;45494;-43
2023/06/29 07:41:56;;;;;;;;;45.25;35.25;;;;;-143.57;100.00;65101.44;5118063;27;45290;-43
2023/06/29 07:44:21;;;;;;;;;42.75;33.50;;;;;-143.57;100.00;65101.44;5117736;27;45253;-45
2023/06/29 07:46:46;;;;;;;;;37.50;33.75;;;;;-143.57;100.00;65101.44;5118105;27;45343;-44
2023/06/29 07:49:12;;;;;;;;;37.25;33.00;;;;;-143.57;100.00;65101.44;5117744;27;46069;-44
2023/06/29 07:51:37;;;;;;;;;44.75;33.75;;;;;-143.57;100.00;65101.44;5117659;27;45423;-43
2023/06/29 07:54:04;;;;;;;;;44.50;35.00;;;;;-143.57;100.00;65101.44;5099457;27;45396;-42
2023/06/29 07:56:31;;;;;;;;;41.00;34.50;;;;;-143.57;100.00;65101.44;5089673;27;45632;-43
2023/06/29 07:58:56;;;;;;;;;42.00;33.00;;;;;-143.57;100.00;65101.44;5093649;27;46214;-43
2023/06/29 08:01:22;;;;;;;;;45.00;35.00;;;;;-143.57;100.00;65101.44;5093879;27;45455;-44
2023/06/29 08:03:47;;;;;;;;;37.00;32.25;;;;;-143.57;100.00;65101.44;5103285;27;45374;-42
2023/06/29 08:06:12;;;;;;;;;43.25;30.75;;;;;-143.57;100.00;65101.44;5102719;27;46234;-45
2023/06/29 08:08:38;;;;;;;;;40.50;32.00;;;;;-143.57;100.00;65101.44;5096515;27;45607;-42
2023/06/29 08:11:03;;;;;;;;;35.50;32.00;;;;;-143.57;100.00;65101.44;5096969;27;45892;-44
2023/06/29 08:13:29;;;;;;;;;29.25;27.25;;;;;-143.57;100.00;65101.44;5112891;27;45621;-45
2023/06/29 08:15:54;;;;;;;;;38.25;33.25;;;;;-143.57;100.00;65101.44;5100142;27;45854;-43
2023/06/29 08:18:19;;;;;;;;;35.75;30.50;;;;;-143.57;100.00;65101.44;5081087;27;46806;-46
2023/06/29 08:20:48;;;;;;;;;39.50;29.75;;;;;-143.57;100.00;65101.44;5096868;27;45498;-45
2023/06/29 08:23:13;;;;;;;;;45.50;31.50;;;;;-143.57;100.00;65101.44;5110473;27;45639;-45
2023/06/29 08:25:39;;;;;;;;;36.00;32.25;;;;;-143.57;100.00;65101.44;5105810;27;45402;-44
2023/06/29 08:28:04;;;;;;;;;39.00;31.50;;;;;-143.57;100.00;65101.44;5112828;27;46313;-44
2023/06/29 08:30:30;;;;;;;;;41.25;32.75;;;;;-143.57;100.00;65101.44;5104557;27;45258;-43
2023/06/29 08:32:55;;;;;;;;;38.50;31.00;;;;;-143.57;100.00;65101.44;5096899;27;45462;-45
2023/06/29 08:35:20;;;;;;;;;47.25;34.00;;;;;-143.57;100.00;65101.44;5101900;27;45457;-43
2023/06/29 08:37:46;;;;;;;;;41.25;31.00;;;;;-143.57;100.00;65101.44;5113359;27;46533;-45
2023/06/29 08:40:11;;;;;;;;;36.75;31.25;;;;;-143.57;100.00;65101.44;5109994;27;45840;-45
2023/06/29 08:42:37;;;;;;;;;42.00;35.00;;;;;-143.57;100.00;65101.44;5116822;27;45494;-45
2023/06/29 08:45:05;;;;;;;;;38.00;30.50;;;;;-143.57;100.00;65101.44;5101520;27;45357;-45
2023/06/29 08:47:33;;;;;;;;;35.80;30.00;;;;;-143.57;100.00;65101.44;5095763;27;46655;-45
2023/06/29 08:50:00;;;;;;;;;36.80;30.20;;;;;-143.57;100.00;65101.44;5095522;27;45816;-45
2023/06/29 08:52:30;;;;;;;;;36.00;30.40;;;;;-143.57;100.00;65101.44;5097944;27;45429;-43
2023/06/29 08:54:57;;;;;;;;;44.00;32.80;;;;;-143.57;100.00;65101.44;5096936;27;45549;-43
2023/06/29 08:57:23;;;;;;;;;36.00;33.20;;;;;-143.57;100.00;65101.44;5103184;27;46213;-45
2023/06/29 08:59:50;;;;;;;;;36.60;30.60;;;;;-143.57;100.00;65101.44;5101305;27;45474;-45
2023/06/29 09:02:16;;;;;;;;;44.20;33.60;;;;;-143.57;100.00;65101.44;5101372;27;45421;-45
2023/06/29 09:04:44;;;;;;;;;33.40;29.20;;;;;-143.57;100.00;65101.44;5111024;27;45387;-44
2023/06/29 09:07:10;;;;;;;;;37.80;30.00;;;;;-143.57;100.00;65101.44;5106123;27;46543;-44
2023/06/29 09:09:35;;;;;;;;;40.50;33.25;;;;;-143.57;100.00;65101.44;5098361;27;45391;-45
2023/06/29 09:12:01;;;;;;;;;36.75;29.00;;;;;-143.57;100.00;65101.44;5096219;27;45493;-43
2023/06/29 09:14:28;;;;;;;;;42.75;33.25;;;;;-143.57;100.00;65101.44;5096233;27;45546;-43
2023/06/29 09:16:58;;;;;;;;;39.80;30.40;;;;;-143.57;100.00;65101.44;5106511;27;45459;-45
2023/06/29 09:19:25;;;;;;;;;41.40;31.80;;;;;-143.57;100.00;65101.44;5115918;27;45789;-44
2023/06/29 09:21:51;;;;;;;;;38.80;30.00;;;;;-143.57;100.00;65101.44;5105886;27;45422;-45
2023/06/29 09:24:19;;;;;;;;;46.50;31.75;;;;;-143.57;100.00;65101.44;5106779;27;45504;-45
2023/06/29 09:26:49;;;;;;;;;46.00;35.25;;;;;-143.57;100.00;65101.44;5101327;27;46129;-45
2023/06/29 09:29:16;;;;;;;;;31.40;29.80;;;;;-143.57;100.00;65101.44;5077238;27;45571;-43
2023/06/29 09:31:56;;;;;;;;;44.60;32.60;;;;;-143.57;100.00;65101.44;5104625;27;45889;-46
2023/06/29 09:34:25;;;;;;;;;46.00;33.50;;;;;-143.57;100.00;65101.44;5105972;27;45407;-45
2023/06/29 09:36:51;;;;;;;;;43.20;33.80;;;;;-143.57;100.00;65101.44;5109294;27;47042;-45
2023/06/29 09:39:17;;;;;;;;;44.00;34.75;;;;;-143.57;100.00;65101.44;5106874;27;45424;-44
2023/06/29 09:41:51;;;;;;;;;37.80;32.40;;;;;-143.57;100.00;65101.44;5106131;27;45609;-45
2023/06/29 09:44:22;;;;;;;;;39.00;33.00;;;;;-143.57;100.00;65101.44;5095469;27;45490;-45
2023/06/29 09:47:04;;;;;;;;;43.00;35.50;;;;;-143.57;100.00;65101.44;5095311;27;45805;-45
2023/06/29 09:49:30;;;;;;;;;45.40;36.00;;;;;-143.57;100.00;65101.44;5095216;27;45462;-45
2023/06/29 09:52:04;;;;;;;;;40.60;34.20;;;;;-143.57;100.00;65101.44;5108746;27;45616;-44
2023/06/29 09:54:38;;;;;;;;;47.50;34.00;;;;;-143.57;100.00;65101.44;5118912;27;45384;-44
2023/06/29 09:57:03;;;;;;;;;39.00;34.00;;;;;-143.57;100.00;65101.44;5119383;27;45338;-44
2023/06/29 09:59:30;;;;;;;;;40.75;33.75;;;;;-143.57;100.00;65101.44;5119297;27;45378;-46
2023/06/29 10:01:55;;;;;;;;;43.00;33.00;;;;;-143.57;100.00;65101.44;5119299;27;45357;-44
2023/06/29 10:04:21;;;;;;;;;37.00;29.25;;;;;-143.57;100.00;65101.44;5119384;27;45280;-45
2023/06/29 10:06:50;;;;;;;;;44.50;34.75;;;;;-143.57;100.00;65101.44;5119012;27;45879;-45
2023/06/29 10:09:20;;;;;;;;;41.20;34.80;;;;;-143.57;100.00;65101.44;5119290;27;45420;-42
2023/06/29 10:11:51;;;;;;;;;39.75;32.75;;;;;-143.57;100.00;65101.44;5119364;27;45339;-46
2023/06/29 10:14:18;;;;;;;;;41.00;32.50;;;;;-143.57;100.00;65101.44;5119475;27;45429;-44
2023/06/29 10:16:50;;;;;;;;;39.75;31.75;;;;;-143.57;100.00;65101.44;5117850;27;47099;-44
2023/06/29 10:19:23;;;;;;;;;35.20;30.80;;;;;-143.57;100.00;65101.44;5119034;27;45430;-44
2023/06/29 10:21:57;;;;;;;;;41.00;31.00;;;;;-143.57;100.00;65101.44;5118930;27;45414;-44
2023/06/29 10:24:27;;;;;;;;;37.75;32.00;;;;;-143.57;100.00;65101.44;5119088;27;45288;-45
2023/06/29 10:26:54;;;;;;;;;37.20;33.20;;;;;-143.57;100.00;65101.44;5119146;27;46545;-43
2023/06/29 10:29:19;;;;;;;;;38.60;30.20;;;;;-143.57;100.00;65101.44;5118644;27;45371;-44
2023/06/29 10:31:48;;;;;;;;;40.50;30.75;;;;;-143.57;100.00;65101.44;5119173;27;45630;-44
2023/06/29 10:34:14;;;;;;;;;24.80;22.60;;;;;-143.57;100.00;65101.44;5118123;27;45315;-43
2023/06/29 10:36:48;;;;;;;;;39.75;34.00;;;;;-143.57;100.00;65101.44;5118639;27;45939;-46
2023/06/29 10:39:41;;;;;;;;;38.40;30.00;;;;;-143.57;100.00;65101.44;5118661;27;45263;-45
2023/06/29 10:42:14;;;;;;;;;40.60;32.20;;;;;-143.57;100.00;65101.44;5118724;27;45275;-44
2023/06/29 10:44:39;;;;;;;;;41.00;31.40;;;;;-143.57;100.00;65101.44;5119065;27;45374;-43
2023/06/29 10:47:05;;;;;;;;;38.00;29.50;;;;;-143.57;100.00;65101.44;5118575;27;46495;-45
2023/06/29 10:49:31;;;;;;;;;38.75;31.75;;;;;-143.57;100.00;65101.44;5118648;27;45453;-44
2023/06/29 10:52:04;;;;;;;;;33.00;29.00;;;;;-143.57;100.00;65101.44;5119061;27;45374;-44